createdAt,value
2022-08-16T00:01:40.667Z,95873.63
2022-08-16T00:04:38.054Z,95872.09
2022-08-16T00:07:34.938Z,95870.53
2022-08-16T00:10:35.819Z,95873.28
2022-08-16T00:13:41.695Z,95879.03
2022-08-16T00:17:06.215Z,95876.03
2022-08-16T00:19:56.469Z,95882.28
2022-08-16T00:22:54.172Z,95884.16
2022-08-16T00:26:34.885Z,95870.53
2022-08-16T00:29:08.247Z,95873.13
2022-08-16T00:32:18.094Z,95872.44
2022-08-16T00:35:25.270Z,95871.59
2022-08-16T00:38:41.111Z,95872.13
2022-08-16T00:41:39.324Z,95869.75
2022-08-16T00:44:44.005Z,95874.28
2022-08-16T00:47:48.928Z,95876.09
2022-08-16T00:50:47.091Z,95882.06
2022-08-16T00:53:53.802Z,95882.38
2022-08-16T00:56:58.395Z,95887.53
2022-08-16T00:59:59.552Z,95885.88
2022-08-16T01:03:01.042Z,95895.19
2022-08-16T01:05:59.442Z,95893.50
2022-08-16T01:09:00.136Z,95891.28
2022-08-16T01:11:57.206Z,95895.00
2022-08-16T01:14:58.675Z,95895.94
2022-08-16T01:17:56.359Z,95906.94
2022-08-16T01:21:16.185Z,95901.63
2022-08-16T01:24:53.377Z,95906.03
2022-08-16T01:27:52.298Z,95910.53
2022-08-16T01:30:55.287Z,95910.69
2022-08-16T01:33:52.493Z,95891.78
2022-08-16T01:36:58.243Z,95908.16
2022-08-16T01:39:55.394Z,95921.03
2022-08-16T01:42:54.039Z,95902.84
2022-08-16T01:45:57.858Z,95901.03
2022-08-16T01:49:06.147Z,95905.28
2022-08-16T01:52:28.154Z,95909.84
2022-08-16T01:55:26.995Z,95911.72
2022-08-16T01:58:32.720Z,95916.28
2022-08-16T02:01:31.968Z,95912.28
2022-08-16T02:04:49.709Z,95906.66
2022-08-16T02:07:48.023Z,95901.25
2022-08-16T02:10:49.082Z,95898.09
2022-08-16T02:13:46.595Z,95904.84
2022-08-16T02:16:51.765Z,95898.38
2022-08-16T02:20:00.222Z,95900.50
2022-08-16T02:23:00.062Z,95901.66
2022-08-16T02:25:59.559Z,95894.00
2022-08-16T02:28:56.950Z,95894.38
2022-08-16T02:32:03.083Z,95895.19
2022-08-16T02:35:01.071Z,95905.25
2022-08-16T02:38:08.620Z,95903.16
2022-08-16T02:41:09.748Z,95902.09
2022-08-16T02:44:11.324Z,95909.34
2022-08-16T02:47:10.898Z,95902.81
2022-08-16T02:50:54.375Z,95903.53
2022-08-16T02:53:44.769Z,95902.09
2022-08-16T02:56:42.746Z,95904.16
2022-08-16T02:59:44.970Z,95899.69
2022-08-16T03:02:44.607Z,95907.06
2022-08-16T03:05:42.239Z,95901.81
2022-08-16T03:08:50.282Z,95903.03
2022-08-16T03:11:48.340Z,95901.91
2022-08-16T03:14:47.971Z,95911.91
2022-08-16T03:17:53.055Z,95917.66
2022-08-16T03:20:55.763Z,95920.28
2022-08-16T03:23:52.951Z,95913.13
2022-08-16T03:26:50.672Z,95916.13
2022-08-16T03:29:54.131Z,95926.34
2022-08-16T03:32:52.273Z,95924.91
2022-08-16T03:35:57.159Z,95924.69
2022-08-16T03:38:54.263Z,95925.69
2022-08-16T03:41:59.946Z,95920.72
2022-08-16T03:45:03.876Z,95923.47
2022-08-16T03:48:07.199Z,95938.09
2022-08-16T03:51:12.953Z,95930.25
2022-08-16T03:54:12.388Z,95932.78
2022-08-16T03:57:11.499Z,95946.41
2022-08-16T04:00:35.519Z,95948.34
2022-08-16T04:03:35.281Z,95951.81
2022-08-16T04:06:33.315Z,95947.03
2022-08-16T04:09:35.479Z,95938.50
2022-08-16T04:12:53.171Z,95940.53
2022-08-16T04:15:50.161Z,95932.53
2022-08-16T04:18:49.769Z,95943.34
2022-08-16T04:21:47.471Z,95942.56
2022-08-16T04:24:54.370Z,95943.94
2022-08-16T04:27:55.786Z,95948.28
2022-08-16T04:30:53.913Z,95951.38
2022-08-16T04:33:51.568Z,95953.94
2022-08-16T04:36:49.300Z,95956.25
2022-08-16T04:39:55.268Z,95958.44
2022-08-16T04:42:53.428Z,95960.16
2022-08-16T04:46:00.023Z,95958.47
2022-08-16T04:48:57.464Z,95954.84
2022-08-16T04:51:55.404Z,95960.81
2022-08-16T04:54:52.402Z,95965.84
2022-08-16T04:57:53.458Z,95958.63
2022-08-16T05:00:50.784Z,95971.56
2022-08-16T05:04:00.454Z,95977.75
2022-08-16T05:06:58.089Z,95978.41
2022-08-16T05:09:54.923Z,95977.03
2022-08-16T05:12:52.211Z,95971.97
2022-08-16T05:15:49.800Z,95977.28
2022-08-16T05:18:48.660Z,95978.28
2022-08-16T05:21:45.501Z,95976.84
2022-08-16T05:24:43.847Z,95971.22
2022-08-16T05:27:43.282Z,95968.31
2022-08-16T05:30:40.439Z,95960.00
2022-08-16T05:33:42.231Z,95967.22
2022-08-16T05:36:39.854Z,95980.28
2022-08-16T05:39:41.160Z,95976.34
2022-08-16T05:42:38.467Z,95973.91
2022-08-16T05:45:36.533Z,95981.66
2022-08-16T05:48:33.610Z,95982.13
2022-08-16T05:51:38.542Z,95986.47
2022-08-16T05:54:36.900Z,95977.78
2022-08-16T05:57:41.951Z,95974.13
2022-08-16T06:00:39.901Z,95980.75
2022-08-16T06:03:37.771Z,95977.09
2022-08-16T06:06:34.891Z,95977.88
2022-08-16T06:09:44.558Z,95972.38
2022-08-16T06:12:41.973Z,95978.38
2022-08-16T06:15:41.542Z,95978.56
2022-08-16T06:18:38.634Z,95982.09
2022-08-16T06:21:36.652Z,95980.09
2022-08-16T06:24:54.243Z,95987.38
2022-08-16T06:27:57.150Z,95984.06
2022-08-16T06:30:54.592Z,95976.81
2022-08-16T06:33:51.834Z,95974.91
2022-08-16T06:36:51.011Z,95984.44
2022-08-16T06:39:56.321Z,95985.78
2022-08-16T06:42:57.294Z,95983.31
2022-08-16T06:45:54.747Z,95986.16
2022-08-16T06:48:51.857Z,95989.50
2022-08-16T06:51:49.332Z,95986.84
2022-08-16T06:54:46.340Z,95994.41
2022-08-16T06:57:46.820Z,96000.25
2022-08-16T07:00:44.486Z,95994.94
2022-08-16T07:03:55.526Z,95989.34
2022-08-16T07:06:54.646Z,95990.59
2022-08-16T07:09:51.560Z,95988.38
2022-08-16T07:13:04.004Z,95987.16
2022-08-16T07:16:14.437Z,95977.72
2022-08-16T07:19:12.425Z,95993.88
2022-08-16T07:22:38.597Z,95992.91
2022-08-16T07:25:27.302Z,95982.94
2022-08-16T07:28:24.729Z,95985.84
2022-08-16T07:31:21.884Z,95986.63
2022-08-16T07:34:19.606Z,95987.59
2022-08-16T07:37:32.207Z,95986.06
2022-08-16T07:40:49.585Z,95983.25
2022-08-16T07:43:47.510Z,95981.72
2022-08-16T07:46:44.644Z,95991.59
2022-08-16T07:49:53.184Z,95991.94
2022-08-16T07:52:55.117Z,95999.94
2022-08-16T07:55:52.861Z,95987.22
2022-08-16T07:58:49.964Z,95997.16
2022-08-16T08:01:53.983Z,95996.84
2022-08-16T08:04:53.100Z,96001.19
2022-08-16T08:07:52.974Z,96006.66
2022-08-16T08:10:54.588Z,96007.09
2022-08-16T08:13:53.960Z,96006.16
2022-08-16T08:16:50.875Z,96008.09
2022-08-16T08:19:53.317Z,96011.59
2022-08-16T08:22:51.404Z,96007.38
2022-08-16T08:25:55.190Z,95999.97
2022-08-16T08:28:52.693Z,96008.13
2022-08-16T08:31:51.458Z,96005.75
2022-08-16T08:34:48.880Z,96005.44
2022-08-16T08:37:54.236Z,96017.50
2022-08-16T08:40:51.922Z,96014.78
2022-08-16T08:43:50.371Z,96006.94
2022-08-16T08:47:00.086Z,96007.41
2022-08-16T08:49:58.952Z,96008.28
2022-08-16T08:52:55.946Z,96008.91
2022-08-16T08:55:58.813Z,96018.22
2022-08-16T08:58:59.211Z,96014.13
2022-08-16T09:01:59.540Z,96021.38
2022-08-16T09:04:57.234Z,96010.06
2022-08-16T09:08:01.754Z,96015.16
2022-08-16T09:11:03.359Z,96013.00
2022-08-16T09:14:05.746Z,96004.69
2022-08-16T09:17:21.551Z,96004.16
2022-08-16T09:20:23.397Z,96000.09
2022-08-16T09:23:21.069Z,95998.22
2022-08-16T09:26:45.537Z,96009.47
2022-08-16T09:29:44.950Z,96007.81
2022-08-16T09:32:47.015Z,96006.31
2022-08-16T09:35:46.861Z,96011.63
2022-08-16T09:38:51.183Z,95999.91
2022-08-16T09:41:59.826Z,96006.66
2022-08-16T09:45:12.533Z,96010.09
2022-08-16T09:48:36.922Z,96013.22
2022-08-16T09:51:36.760Z,96000.41
2022-08-16T09:54:34.526Z,96000.13
2022-08-16T09:57:34.576Z,96004.50
2022-08-16T10:00:43.946Z,96012.22
2022-08-16T10:04:02.685Z,96003.41
2022-08-16T10:10:00.951Z,96010.00
2022-08-16T10:13:16.163Z,96008.78
2022-08-16T10:19:13.531Z,96012.25
2022-08-16T10:22:17.176Z,96009.03
2022-08-16T10:27:17.502Z,96001.06
2022-08-16T10:28:31.909Z,96011.59
2022-08-16T10:31:45.649Z,96010.94
2022-08-16T10:34:43.147Z,96007.94
2022-08-16T10:37:41.952Z,95996.38
2022-08-16T10:40:41.080Z,95994.78
2022-08-16T10:43:43.091Z,95993.66
2022-08-16T10:46:42.206Z,96002.38
2022-08-16T10:49:39.387Z,95996.03
2022-08-16T10:55:44.112Z,95998.03
2022-08-16T10:58:42.383Z,96001.84
2022-08-16T11:01:43.895Z,95987.69
2022-08-16T11:07:59.069Z,95993.50
2022-08-16T11:11:06.767Z,95984.38
2022-08-16T11:14:11.671Z,95991.03
2022-08-16T11:17:11.412Z,95993.66
2022-08-16T11:23:28.403Z,96002.09
2022-08-16T11:26:25.932Z,96013.41
2022-08-16T11:29:22.795Z,95996.06
2022-08-16T11:32:31.622Z,95989.66
2022-08-16T11:38:56.964Z,96001.88
2022-08-16T11:41:55.303Z,95996.41
2022-08-16T11:44:57.098Z,95986.81
2022-08-16T11:47:55.160Z,95998.56
2022-08-16T11:50:52.852Z,95977.25
2022-08-16T11:53:49.824Z,95981.59
2022-08-16T11:56:53.099Z,95986.66
2022-08-16T11:59:54.583Z,95991.94
2022-08-16T12:02:51.805Z,95987.50
2022-08-16T12:05:51.927Z,95987.88
2022-08-16T12:08:52.233Z,95990.78
2022-08-16T12:11:52.770Z,95985.59
2022-08-16T12:14:59.247Z,95991.19
2022-08-16T12:17:57.342Z,95994.94
2022-08-16T12:20:58.357Z,95981.22
2022-08-16T12:23:56.855Z,95974.56
2022-08-16T12:26:54.637Z,95975.41
2022-08-16T12:29:53.757Z,95971.06
2022-08-16T12:32:51.596Z,95979.16
2022-08-16T12:35:50.313Z,95972.78
2022-08-16T12:38:48.399Z,95969.19
2022-08-16T12:41:46.268Z,95966.91
2022-08-16T12:44:43.384Z,95974.94
2022-08-16T12:48:22.579Z,95979.84
2022-08-16T12:51:24.182Z,95977.09
2022-08-16T12:54:22.197Z,95979.28
2022-08-16T12:57:19.027Z,95980.72
2022-08-16T13:00:26.607Z,95976.19
2022-08-16T13:03:23.686Z,95971.81
2022-08-16T13:06:21.644Z,95969.44
2022-08-16T13:09:31.736Z,95968.25
2022-08-16T13:12:42.779Z,95969.22
2022-08-16T13:15:51.795Z,95956.69
2022-08-16T13:18:54.526Z,95960.78
2022-08-16T13:21:51.505Z,95964.25
2022-08-16T13:24:50.551Z,95957.94
2022-08-16T13:28:02.280Z,95970.25
2022-08-16T13:31:03.303Z,95980.03
2022-08-16T13:34:00.212Z,95968.44
2022-08-16T13:36:57.039Z,95971.59
2022-08-16T13:39:53.918Z,95964.56
2022-08-16T13:42:53.765Z,95965.31
2022-08-16T13:45:51.608Z,95962.13
2022-08-16T13:48:52.259Z,95965.94
2022-08-16T13:51:49.702Z,95968.22
2022-08-16T13:54:46.556Z,95962.72
2022-08-16T13:57:53.166Z,95961.22
2022-08-16T14:00:52.782Z,95961.16
2022-08-16T14:03:50.421Z,95962.28
2022-08-16T14:06:51.575Z,95959.75
2022-08-16T14:09:50.368Z,95954.03
2022-08-16T14:12:52.084Z,95954.31
2022-08-16T14:15:49.428Z,95951.88
2022-08-16T14:18:46.975Z,95954.25
2022-08-16T14:22:02.293Z,95945.81
2022-08-16T14:25:10.304Z,95944.53
2022-08-16T14:28:09.667Z,95946.84
2022-08-16T14:31:06.739Z,95947.72
2022-08-16T14:34:07.177Z,95956.09
2022-08-16T14:37:08.180Z,95952.88
2022-08-16T14:40:08.605Z,95946.66
2022-08-16T14:43:07.646Z,95946.06
2022-08-16T14:46:07.399Z,95951.34
2022-08-16T14:49:04.568Z,95951.16
2022-08-16T14:52:13.639Z,95957.22
2022-08-16T14:55:12.161Z,95952.38
2022-08-16T14:58:18.789Z,95961.94
2022-08-16T15:01:17.153Z,95960.44
2022-08-16T15:04:37.826Z,95974.41
2022-08-16T15:07:35.022Z,95963.78
2022-08-16T15:10:32.769Z,95968.75
2022-08-16T15:13:29.647Z,95964.50
2022-08-16T15:16:29.101Z,95957.78
2022-08-16T15:19:26.205Z,95954.94
2022-08-16T15:22:39.042Z,95955.09
2022-08-16T15:25:42.903Z,95952.34
2022-08-16T15:28:40.629Z,95960.31
2022-08-16T15:31:41.409Z,95955.78
2022-08-16T15:34:44.637Z,95961.72
2022-08-16T15:37:42.728Z,95957.75
2022-08-16T15:40:57.528Z,95955.91
2022-08-16T15:44:05.202Z,95957.38
2022-08-16T15:47:14.620Z,95961.75
2022-08-16T15:50:12.342Z,95955.28
2022-08-16T15:53:17.343Z,95965.53
2022-08-16T15:56:14.605Z,95956.41
2022-08-16T15:59:12.464Z,95955.88
2022-08-16T16:02:10.892Z,95960.75
2022-08-16T16:05:11.787Z,95957.56
2022-08-16T16:08:11.454Z,95958.78
2022-08-16T16:11:09.806Z,95960.00
2022-08-16T16:14:07.451Z,95958.34
2022-08-16T16:17:06.199Z,95952.78
2022-08-16T16:20:05.358Z,95947.22
2022-08-16T16:23:14.941Z,95949.75
2022-08-16T16:26:15.285Z,95947.88
2022-08-16T16:29:15.594Z,95955.41
2022-08-16T16:32:12.965Z,95953.09
2022-08-16T16:35:13.050Z,95945.00
2022-08-16T16:38:10.117Z,95940.56
2022-08-16T16:41:11.416Z,95943.34
2022-08-16T16:44:09.118Z,95951.56
2022-08-16T16:47:07.067Z,95953.69
2022-08-16T16:50:05.829Z,95954.34
2022-08-16T16:53:17.265Z,95959.97
2022-08-16T16:56:20.019Z,95956.63
2022-08-16T16:59:25.450Z,95962.75
2022-08-16T17:02:41.304Z,95963.66
2022-08-16T17:05:42.062Z,95965.03
2022-08-16T17:08:51.941Z,95956.06
2022-08-16T17:11:55.193Z,95968.09
2022-08-16T17:14:55.510Z,95964.09
2022-08-16T17:17:59.998Z,95975.03
2022-08-16T17:20:58.712Z,95961.47
2022-08-16T17:23:58.954Z,95970.72
2022-08-16T17:27:18.136Z,95966.56
2022-08-16T17:30:20.446Z,95972.41
2022-08-16T17:33:26.443Z,95978.00
2022-08-16T17:36:36.289Z,95991.53
2022-08-16T17:39:59.527Z,95991.88
2022-08-16T17:42:55.199Z,95991.25
2022-08-16T17:45:52.062Z,95997.53
2022-08-16T17:48:50.009Z,95986.44
2022-08-16T17:51:47.531Z,95989.59
2022-08-16T17:54:45.094Z,95984.22
2022-08-16T17:57:42.014Z,95991.38
2022-08-16T18:00:40.829Z,95996.25
2022-08-16T18:04:07.556Z,96006.66
2022-08-16T18:06:59.699Z,95997.34
2022-08-16T18:09:56.650Z,96009.94
2022-08-16T18:12:56.001Z,96008.09
2022-08-16T18:15:53.211Z,96015.13
2022-08-16T18:18:50.452Z,96008.88
2022-08-16T18:22:05.673Z,96013.94
2022-08-16T18:25:05.428Z,96020.97
2022-08-16T18:28:03.237Z,96014.38
2022-08-16T18:31:01.197Z,96021.78
2022-08-16T18:34:02.651Z,96017.13
2022-08-16T18:37:00.248Z,96024.16
2022-08-16T18:39:58.152Z,96021.78
2022-08-16T18:43:06.253Z,96036.59
2022-08-16T18:46:03.217Z,96031.09
2022-08-16T18:49:00.101Z,96040.47
2022-08-16T18:51:59.499Z,96043.94
2022-08-16T18:55:02.043Z,96061.78
2022-08-16T18:58:01.628Z,96050.09
2022-08-16T19:00:58.479Z,96055.53
2022-08-16T19:04:00.178Z,96054.75
2022-08-16T19:06:57.140Z,96050.38
2022-08-16T19:09:53.983Z,96046.50
2022-08-16T19:12:51.304Z,96047.94
2022-08-16T19:15:51.670Z,96070.38
2022-08-16T19:18:48.936Z,96070.38
2022-08-16T19:21:45.770Z,96072.31
2022-08-16T19:24:44.139Z,96080.00
2022-08-16T19:27:42.637Z,96087.69
2022-08-16T19:30:40.476Z,96078.28
2022-08-16T19:33:37.906Z,96073.13
2022-08-16T19:36:38.195Z,96071.22
2022-08-16T19:39:36.551Z,96077.25
2022-08-16T19:42:33.538Z,96085.34
2022-08-16T19:45:30.626Z,96094.91
2022-08-16T19:48:27.556Z,96091.88
2022-08-16T19:51:24.375Z,96090.16
2022-08-16T19:54:21.213Z,96090.59
2022-08-16T19:57:19.733Z,96098.06
2022-08-16T20:00:18.932Z,96093.41
2022-08-16T20:03:21.256Z,96097.78
2022-08-16T20:06:38.594Z,96105.44
2022-08-16T20:09:35.095Z,96113.22
2022-08-16T20:12:32.097Z,96119.78
2022-08-16T20:15:31.669Z,96112.13
2022-08-16T20:18:28.645Z,96120.06
2022-08-16T20:21:25.605Z,96122.72
2022-08-16T20:24:34.119Z,96121.25
2022-08-16T20:27:32.597Z,96128.03
2022-08-16T20:30:29.791Z,96125.56
2022-08-16T20:33:26.635Z,96131.31
2022-08-16T20:36:24.478Z,96142.22
2022-08-16T20:39:23.366Z,96137.66
2022-08-16T20:42:27.055Z,96141.28
2022-08-16T20:45:26.969Z,96142.34
2022-08-16T20:48:24.561Z,96140.38
2022-08-16T20:51:21.391Z,96152.16
2022-08-16T20:54:18.690Z,96147.94
2022-08-16T20:57:16.546Z,96152.03
2022-08-16T21:00:14.713Z,96149.59
2022-08-16T21:03:13.066Z,96147.50
2022-08-16T21:06:09.962Z,96156.28
2022-08-16T21:09:07.396Z,96157.72
2022-08-16T21:12:11.398Z,96158.28
2022-08-16T21:15:11.229Z,96155.22
2022-08-16T21:18:10.086Z,96159.78
2022-08-16T21:21:06.963Z,96164.63
2022-08-16T21:24:04.212Z,96163.84
2022-08-16T21:27:02.737Z,96165.34
2022-08-16T21:30:00.374Z,96173.97
2022-08-16T21:33:07.618Z,96167.34
2022-08-16T21:36:04.999Z,96173.25
2022-08-16T21:39:01.843Z,96172.31
2022-08-16T21:41:59.081Z,96169.56
2022-08-16T21:44:55.980Z,96170.41
2022-08-16T21:47:52.830Z,96172.94
2022-08-16T21:50:49.652Z,96167.31
2022-08-16T21:53:46.548Z,96167.50
2022-08-16T21:56:43.389Z,96176.59
2022-08-16T21:59:40.220Z,96177.47
2022-08-16T22:02:38.803Z,96172.13
2022-08-16T22:05:38.434Z,96174.97
2022-08-16T22:08:39.554Z,96169.00
2022-08-16T22:11:46.877Z,96175.53
2022-08-16T22:14:43.714Z,96178.56
2022-08-16T22:17:41.793Z,96175.22
2022-08-16T22:20:41.257Z,96175.69
2022-08-16T22:23:38.359Z,96178.97
2022-08-16T22:26:42.767Z,96178.72
2022-08-16T22:29:42.328Z,96174.03
2022-08-16T22:32:44.727Z,96167.31
2022-08-16T22:35:52.824Z,96166.59
2022-08-16T22:38:56.640Z,96173.91
2022-08-16T22:41:54.824Z,96182.75
2022-08-16T22:44:52.494Z,96171.84
2022-08-16T22:47:50.153Z,96172.50
2022-08-16T22:50:47.165Z,96175.84
2022-08-16T22:53:44.117Z,96171.19
2022-08-16T22:56:40.970Z,96169.09
2022-08-16T22:59:37.806Z,96163.28
2022-08-16T23:02:34.653Z,96168.81
2022-08-16T23:05:42.196Z,96163.03
2022-08-16T23:08:41.685Z,96171.38
2022-08-16T23:11:38.572Z,96158.75
2022-08-16T23:14:35.477Z,96156.97
2022-08-16T23:17:32.309Z,96162.63
2022-08-16T23:20:29.603Z,96160.16
2022-08-16T23:23:27.844Z,96164.25
2022-08-16T23:26:46.488Z,96162.09
2022-08-16T23:29:41.638Z,96167.41
2022-08-16T23:32:54.452Z,96162.88
2022-08-16T23:35:56.098Z,96166.38
2022-08-16T23:38:52.975Z,96164.47
2022-08-16T23:41:49.801Z,96166.22
2022-08-16T23:44:58.929Z,96162.03
2022-08-16T23:47:57.064Z,96163.50
2022-08-16T23:50:56.255Z,96160.72
2022-08-16T23:53:55.610Z,96168.91
2022-08-16T23:56:52.518Z,96156.44
2022-08-16T23:59:52.449Z,96161.69
